Time;durP1;ratioP1;P1;durP2;ratioP2;P2;SDS_P1;SDS_P2;PMS_P1;PMS_P2;Temp;Humidity;BMP_temperature;BMP_pressure;BME280_temperature;BME280_humidity;BME280_pressure;Samples;Min_cycle;Max_cycle;Signal;HPM_P1;HPM_P2
2022/07/13 00:02:09;;;;;;;2.23;1.80;;;;;;;;;;5054375;28;20378;-72
2022/07/13 00:04:35;;;;;;;2.40;1.60;;;;;;;;;;5054308;28;20448;-72
2022/07/13 00:07:02;;;;;;;1.50;1.30;;;;;;;;;;5054232;28;20095;-72
2022/07/13 00:09:28;;;;;;;3.03;1.60;;;;;;;;;;5054133;28;20463;-71
2022/07/13 00:11:55;;;;;;;4.17;1.23;;;;;;;;;;5054139;28;20040;-71
2022/07/13 00:14:21;;;;;;;2.87;1.20;;;;;;;;;;5033928;28;20050;-71
2022/07/13 00:16:48;;;;;;;1.53;1.10;;;;;;;;;;5045210;28;20049;-71
2022/07/13 00:19:15;;;;;;;4.07;1.00;;;;;;;;;;5052400;28;20056;-72
2022/07/13 00:21:41;;;;;;;;;;;;;;;;;;5054400;28;20332;-71
2022/07/13 00:24:08;;;;;;;1.13;0.90;;;;;;;;;;5053924;28;19928;-72
2022/07/13 00:26:34;;;;;;;2.78;0.80;;;;;;;;;;5053695;28;20053;-71
2022/07/13 00:29:01;;;;;;;0.97;0.87;;;;;;;;;;5054147;28;20162;-71
2022/07/13 00:31:27;;;;;;;3.80;1.07;;;;;;;;;;5053406;28;20061;-71
2022/07/13 00:33:54;;;;;;;1.85;1.00;;;;;;;;;;5053784;28;20598;-72
2022/07/13 00:36:20;;;;;;;0.97;0.70;;;;;;;;;;5053551;28;20118;-71
2022/07/13 00:38:48;;;;;;;1.47;0.80;;;;;;;;;;5053279;28;20071;-71
2022/07/13 00:41:14;;;;;;;0.95;0.85;;;;;;;;;;5053752;28;20052;-71
2022/07/13 00:43:40;;;;;;;2.83;0.87;;;;;;;;;;5053339;28;20099;-71
2022/07/13 00:46:08;;;;;;;1.37;0.73;;;;;;;;;;5052019;28;20455;-71
2022/07/13 00:48:34;;;;;;;;;;;;;;;;;;5053704;28;20059;-71
2022/07/13 00:51:01;;;;;;;2.95;0.75;;;;;;;;;;5053355;28;20376;-71
2022/07/13 00:53:27;;;;;;;1.38;0.77;;;;;;;;;;5053227;28;20064;-71
2022/07/13 00:55:54;;;;;;;1.00;0.88;;;;;;;;;;5053162;28;20049;-71
2022/07/13 00:58:22;;;;;;;1.92;0.88;;;;;;;;;;5052995;28;20049;-72
2022/07/13 01:00:48;;;;;;;1.95;0.77;;;;;;;;;;5053221;28;20045;-71
2022/07/13 01:03:15;;;;;;;0.82;0.70;;;;;;;;;;5053023;28;20520;-71
2022/07/13 01:05:43;;;;;;;2.13;0.80;;;;;;;;;;5053286;28;20045;-71
2022/07/13 01:08:10;;;;;;;0.95;0.80;;;;;;;;;;5052985;28;20332;-71
2022/07/13 01:10:38;;;;;;;1.55;0.65;;;;;;;;;;5051966;28;20207;-71
2022/07/13 01:13:07;;;;;;;1.50;0.60;;;;;;;;;;5052944;28;20121;-71
2022/07/13 01:15:33;;;;;;;0.77;0.63;;;;;;;;;;5052722;28;20107;-71
2022/07/13 01:18:01;;;;;;;0.80;0.80;;;;;;;;;;5052784;28;20076;-71
2022/07/13 01:20:28;;;;;;;1.95;0.90;;;;;;;;;;5051424;28;20059;-72
2022/07/13 01:22:55;;;;;;;1.27;0.80;;;;;;;;;;5052610;28;20045;-71
2022/07/13 01:25:22;;;;;;;1.48;0.90;;;;;;;;;;5051415;28;20048;-71
2022/07/13 01:27:49;;;;;;;1.73;1.00;;;;;;;;;;5052528;28;20578;-71
2022/07/13 01:30:16;;;;;;;2.78;0.73;;;;;;;;;;5052597;28;20316;-71
2022/07/13 01:32:43;;;;;;;1.45;0.80;;;;;;;;;;5052572;28;20546;-71
2022/07/13 01:35:10;;;;;;;0.68;0.68;;;;;;;;;;5052432;28;20049;-71
2022/07/13 01:37:37;;;;;;;1.90;1.47;;;;;;;;;;5052151;28;20064;-71
2022/07/13 01:40:03;;;;;;;;;;;;;;;;;;5052545;28;20060;-71
2022/07/13 01:42:30;;;;;;;4.05;3.60;;;;;;;;;;5052584;28;19971;-71
2022/07/13 01:44:57;;;;;;;4.77;3.83;;;;;;;;;;5052432;28;20099;-71
2022/07/13 01:47:23;;;;;;;3.95;3.08;;;;;;;;;;5051661;28;20118;-71
2022/07/13 01:49:50;;;;;;;4.07;3.17;;;;;;;;;;5052452;28;20048;-71
2022/07/13 01:52:16;;;;;;;3.47;3.10;;;;;;;;;;5052195;28;20052;-71
2022/07/13 01:54:43;;;;;;;5.63;3.57;;;;;;;;;;5052081;28;20045;-71
2022/07/13 01:57:09;;;;;;;5.57;3.10;;;;;;;;;;5051972;28;20052;-71
2022/07/13 01:59:36;;;;;;;3.10;2.30;;;;;;;;;;5051923;28;20564;-71
2022/07/13 02:02:02;;;;;;;2.38;1.63;;;;;;;;;;5051933;28;20488;-71
2022/07/13 02:04:28;;;;;;;1.20;0.93;;;;;;;;;;5052093;28;20400;-71
2022/07/13 02:06:55;;;;;;;0.98;0.70;;;;;;;;;;5051911;28;20052;-71
2022/07/13 02:09:21;;;;;;;4.90;0.77;;;;;;;;;;5051738;28;20555;-71
2022/07/13 02:11:48;;;;;;;1.85;0.90;;;;;;;;;;5051768;28;20099;-71
2022/07/13 02:14:14;;;;;;;1.37;0.80;;;;;;;;;;5051744;28;20057;-71
2022/07/13 02:16:41;;;;;;;0.70;0.70;;;;;;;;;;5052294;28;20049;-71
2022/07/13 02:19:08;;;;;;;2.22;0.63;;;;;;;;;;5051580;28;20045;-71
2022/07/13 02:21:34;;;;;;;2.13;0.90;;;;;;;;;;5051632;28;20508;-71
2022/07/13 02:24:01;;;;;;;0.83;0.50;;;;;;;;;;5051872;28;20103;-71
2022/07/13 02:26:27;;;;;;;2.78;0.90;;;;;;;;;;5051501;28;20075;-71
2022/07/13 02:28:54;;;;;;;0.63;0.63;;;;;;;;;;5044174;28;20045;-71
2022/07/13 02:31:21;;;;;;;1.88;0.70;;;;;;;;;;5045094;28;20045;-71
2022/07/13 02:33:47;;;;;;;2.45;0.98;;;;;;;;;;5051756;28;20075;-71
2022/07/13 02:36:14;;;;;;;0.97;0.87;;;;;;;;;;5051279;28;20114;-71
2022/07/13 02:38:40;;;;;;;0.63;0.63;;;;;;;;;;5045244;28;20432;-71
2022/07/13 02:41:07;;;;;;;0.80;0.80;;;;;;;;;;5051595;28;20098;-71
2022/07/13 02:43:33;;;;;;;0.75;0.65;;;;;;;;;;5051588;28;20095;-71
2022/07/13 02:45:59;;;;;;;1.10;1.00;;;;;;;;;;5051657;28;20041;-71
2022/07/13 02:48:26;;;;;;;0.60;0.60;;;;;;;;;;5051463;28;20069;-71
2022/07/13 02:50:52;;;;;;;1.92;0.77;;;;;;;;;;5051336;28;20049;-71
2022/07/13 02:53:19;;;;;;;1.65;1.15;;;;;;;;;;5051626;28;20475;-71
2022/07/13 02:55:45;;;;;;;1.17;0.60;;;;;;;;;;5051261;28;20080;-71
2022/07/13 02:58:12;;;;;;;1.13;1.00;;;;;;;;;;5051758;28;20049;-71
2022/07/13 03:00:38;;;;;;;2.73;0.97;;;;;;;;;;5055376;28;20045;-70
2022/07/13 03:03:05;;;;;;;1.03;0.80;;;;;;;;;;5055600;28;20049;-71
2022/07/13 03:05:31;;;;;;;2.30;1.13;;;;;;;;;;5055147;28;20059;-71
2022/07/13 03:07:58;;;;;;;2.08;1.15;;;;;;;;;;5055189;28;20605;-71
2022/07/13 03:10:24;;;;;;;2.70;1.10;;;;;;;;;;5055124;28;20080;-71
2022/07/13 03:12:51;;;;;;;2.08;1.33;;;;;;;;;;5055063;28;20492;-71
2022/07/13 03:15:18;;;;;;;3.30;1.42;;;;;;;;;;5055259;28;20056;-71
2022/07/13 03:17:44;;;;;;;4.25;1.52;;;;;;;;;;5055337;28;20424;-71
2022/07/13 03:20:11;;;;;;;1.58;1.30;;;;;;;;;;5054837;28;20103;-70
2022/07/13 03:22:38;;;;;;;3.25;1.17;;;;;;;;;;5054903;28;20455;-71
2022/07/13 03:25:05;;;;;;;3.83;1.37;;;;;;;;;;5055211;28;20095;-70
2022/07/13 03:27:31;;;;;;;2.47;1.48;;;;;;;;;;5055089;28;20138;-71
2022/07/13 03:29:58;;;;;;;2.70;1.60;;;;;;;;;;5054826;28;20083;-71
2022/07/13 03:32:24;;;;;;;2.85;1.35;;;;;;;;;;5054754;28;20114;-71
2022/07/13 03:34:51;;;;;;;2.63;1.75;;;;;;;;;;5054741;28;20053;-71
2022/07/13 03:37:17;;;;;;;2.53;1.65;;;;;;;;;;5054521;28;20501;-71
2022/07/13 03:39:43;;;;;;;3.55;1.50;;;;;;;;;;5054535;28;20649;-71
2022/07/13 03:42:10;;;;;;;4.78;2.30;;;;;;;;;;5054858;28;20056;-71
2022/07/13 03:44:36;;;;;;;3.63;2.13;;;;;;;;;;5054783;28;20444;-71
2022/07/13 03:47:03;;;;;;;3.42;1.90;;;;;;;;;;5054383;28;20041;-71
2022/07/13 03:49:29;;;;;;;1.95;1.63;;;;;;;;;;5054324;28;20095;-71
2022/07/13 03:51:56;;;;;;;2.20;1.38;;;;;;;;;;5054693;28;20055;-71
2022/07/13 03:54:22;;;;;;;1.60;1.50;;;;;;;;;;5054494;28;20106;-71
2022/07/13 03:56:49;;;;;;;1.80;1.70;;;;;;;;;;5054524;28;20162;-70
2022/07/13 03:59:15;;;;;;;2.10;1.92;;;;;;;;;;5054388;28;20102;-70
2022/07/13 04:01:42;;;;;;;2.13;1.33;;;;;;;;;;5054409;28;20102;-71
2022/07/13 04:04:09;;;;;;;2.63;1.63;;;;;;;;;;5054153;28;20504;-71
2022/07/13 04:06:35;;;;;;;3.70;1.55;;;;;;;;;;5054375;28;20041;-71
2022/07/13 04:09:02;;;;;;;2.20;1.80;;;;;;;;;;5053916;28;20045;-71
2022/07/13 04:11:28;;;;;;;2.83;1.73;;;;;;;;;;5040589;28;20061;-71
2022/07/13 04:13:55;;;;;;;1.80;1.70;;;;;;;;;;5053835;28;20463;-71
2022/07/13 04:16:21;;;;;;;2.22;1.80;;;;;;;;;;5054235;28;20098;-71
2022/07/13 04:18:48;;;;;;;4.13;2.13;;;;;;;;;;5053988;28;20086;-71
2022/07/13 04:21:14;;;;;;;1.85;1.75;;;;;;;;;;5053841;28;20103;-71
2022/07/13 04:23:41;;;;;;;2.83;1.67;;;;;;;;;;5053779;28;20053;-71
2022/07/13 04:26:07;;;;;;;3.05;1.90;;;;;;;;;;5053789;28;20044;-71
2022/07/13 04:28:34;;;;;;;2.28;1.85;;;;;;;;;;5053741;28;20049;-71
2022/07/13 04:31:00;;;;;;;2.75;2.33;;;;;;;;;;5053645;28;20114;-71
2022/07/13 04:33:27;;;;;;;2.47;2.25;;;;;;;;;;5053888;28;20045;-71
2022/07/13 04:35:53;;;;;;;2.72;2.45;;;;;;;;;;5053682;28;20049;-71
2022/07/13 04:38:20;;;;;;;3.55;3.03;;;;;;;;;;5033871;28;20042;-71
2022/07/13 04:40:46;;;;;;;5.32;3.47;;;;;;;;;;5033469;28;20497;-71
2022/07/13 04:43:13;;;;;;;4.70;3.45;;;;;;;;;;5033610;28;20103;-71
2022/07/13 04:45:39;;;;;;;4.20;3.90;;;;;;;;;;5033357;28;20647;-71
2022/07/13 04:48:06;;;;;;;5.47;3.42;;;;;;;;;;5033360;28;20041;-71
2022/07/13 04:50:32;;;;;;;4.57;4.17;;;;;;;;;;5033600;28;20076;-72
2022/07/13 04:52:59;;;;;;;5.03;4.22;;;;;;;;;;5033278;28;20497;-71
2022/07/13 04:55:26;;;;;;;5.38;4.22;;;;;;;;;;5033388;28;20061;-71
2022/07/13 04:57:54;;;;;;;6.35;4.65;;;;;;;;;;5032135;28;20100;-71
2022/07/13 05:00:20;;;;;;;4.63;4.20;;;;;;;;;;5033344;28;20053;-71
2022/07/13 05:02:47;;;;;;;5.10;3.97;;;;;;;;;;5031906;28;20076;-71
2022/07/13 05:05:13;;;;;;;5.57;4.60;;;;;;;;;;5033002;28;20049;-71
2022/07/13 05:07:40;;;;;;;6.32;4.28;;;;;;;;;;5033338;28;20076;-72
2022/07/13 05:10:07;;;;;;;6.37;4.47;;;;;;;;;;5033194;28;20049;-71
2022/07/13 05:12:38;;;;;;;5.45;4.05;;;;;;;;;;5032886;28;20452;-71
2022/07/13 05:15:04;;;;;;;4.78;4.32;;;;;;;;;;5032771;28;20445;-71
2022/07/13 05:17:31;;;;;;;6.18;4.30;;;;;;;;;;5033044;28;20057;-71
2022/07/13 05:19:57;;;;;;;4.47;3.80;;;;;;;;;;5032920;28;20052;-71
2022/07/13 05:22:24;;;;;;;6.30;3.95;;;;;;;;;;5032000;28;20104;-71
2022/07/13 05:24:50;;;;;;;5.88;3.67;;;;;;;;;;5033059;28;20118;-71
2022/07/13 05:27:17;;;;;;;4.28;3.55;;;;;;;;;;5032533;28;20045;-71
2022/07/13 05:29:43;;;;;;;3.92;2.95;;;;;;;;;;5032975;28;20049;-71
2022/07/13 05:32:09;;;;;;;3.60;3.22;;;;;;;;;;5032837;28;20065;-71
2022/07/13 05:34:36;;;;;;;3.75;3.28;;;;;;;;;;5032853;28;20115;-71
2022/07/13 05:37:02;;;;;;;2.95;2.72;;;;;;;;;;5041892;28;20056;-71
2022/07/13 05:39:29;;;;;;;5.20;3.37;;;;;;;;;;5052600;28;20106;-71
2022/07/13 05:41:56;;;;;;;4.32;3.10;;;;;;;;;;5052553;28;20068;-71
2022/07/13 05:44:22;;;;;;;3.50;2.92;;;;;;;;;;5052272;28;20045;-71
2022/07/13 05:46:49;;;;;;;4.20;2.80;;;;;;;;;;5052124;28;20052;-71
2022/07/13 05:49:16;;;;;;;3.67;2.70;;;;;;;;;;5052516;28;20056;-71
2022/07/13 05:51:42;;;;;;;2.70;2.50;;;;;;;;;;5051997;28;20049;-71
2022/07/13 05:54:09;;;;;;;2.40;2.20;;;;;;;;;;5052379;28;20052;-71
2022/07/13 05:56:55;;;;;;;4.47;1.77;;;;;;;;;;5052210;28;20128;-71
2022/07/13 05:59:22;;;;;;;2.20;1.80;;;;;;;;;;5052141;28;20169;-70
2022/07/13 06:01:48;;;;;;;2.60;1.83;;;;;;;;;;5040748;28;20286;-67
2022/07/13 06:04:16;;;;;;;2.45;1.73;;;;;;;;;;5031619;28;20045;-67
2022/07/13 06:06:43;;;;;;;2.55;1.92;;;;;;;;;;5031840;28;20132;-68
2022/07/13 06:09:10;;;;;;;1.83;1.73;;;;;;;;;;5031688;28;20042;-66
2022/07/13 06:11:36;;;;;;;2.03;1.80;;;;;;;;;;5031753;28;20356;-69
2022/07/13 06:14:02;;;;;;;3.00;1.67;;;;;;;;;;5031033;28;20053;-67
2022/07/13 06:16:29;;;;;;;2.23;2.03;;;;;;;;;;5045860;28;20102;-68
2022/07/13 06:18:55;;;;;;;1.53;1.30;;;;;;;;;;5051775;28;20400;-69
2022/07/13 06:21:22;;;;;;;1.97;1.77;;;;;;;;;;5051545;28;20049;-70
2022/07/13 06:23:48;;;;;;;1.57;1.47;;;;;;;;;;5038607;28;20488;-69
2022/07/13 06:26:15;;;;;;;2.37;1.73;;;;;;;;;;5039372;28;20067;-69
2022/07/13 06:28:42;;;;;;;3.30;2.00;;;;;;;;;;5051886;28;20274;-69
2022/07/13 06:31:09;;;;;;;1.92;1.83;;;;;;;;;;5050712;28;20099;-70
2022/07/13 06:33:36;;;;;;;2.95;1.70;;;;;;;;;;5031160;28;20057;-69
2022/07/13 06:36:02;;;;;;;2.70;1.57;;;;;;;;;;5047289;28;20106;-70
2022/07/13 06:38:29;;;;;;;3.10;1.55;;;;;;;;;;5049880;28;20501;-69
2022/07/13 06:40:55;;;;;;;1.80;1.63;;;;;;;;;;5038990;28;20487;-69
2022/07/13 06:43:22;;;;;;;1.90;1.80;;;;;;;;;;5049573;28;20083;-68
2022/07/13 06:45:48;;;;;;;1.63;1.52;;;;;;;;;;5051226;28;20037;-69
2022/07/13 06:48:15;;;;;;;1.60;1.50;;;;;;;;;;5044193;28;20041;-70
2022/07/13 06:50:41;;;;;;;2.70;1.67;;;;;;;;;;5037425;28;20045;-69
2022/07/13 06:53:08;;;;;;;2.03;1.70;;;;;;;;;;5041754;28;20053;-69
2022/07/13 06:55:34;;;;;;;2.30;1.80;;;;;;;;;;5050808;28;20098;-69
2022/07/13 06:58:02;;;;;;;2.75;1.90;;;;;;;;;;5051233;28;20103;-69
2022/07/13 07:00:28;;;;;;;2.60;1.98;;;;;;;;;;5051271;28;20069;-69
2022/07/13 07:02:55;;;;;;;2.38;1.77;;;;;;;;;;5051742;28;20045;-69
2022/07/13 07:05:22;;;;;;;2.40;1.95;;;;;;;;;;5051143;28;20056;-69
2022/07/13 07:07:48;;;;;;;2.10;1.70;;;;;;;;;;5051329;28;20041;-69
2022/07/13 07:10:15;;;;;;;1.88;1.60;;;;;;;;;;5051204;28;20057;-69
2022/07/13 07:12:41;;;;;;;1.55;1.45;;;;;;;;;;5051455;28;20061;-69
2022/07/13 07:15:08;;;;;;;2.38;1.50;;;;;;;;;;5051215;28;20056;-69
2022/07/13 07:17:42;;;;;;;1.85;1.63;;;;;;;;;;5051092;28;20049;-69
2022/07/13 07:20:09;;;;;;;1.73;1.60;;;;;;;;;;5050047;28;20048;-69
2022/07/13 07:22:35;;;;;;;2.22;2.03;;;;;;;;;;5051233;28;20501;-69
2022/07/13 07:25:02;;;;;;;2.50;1.83;;;;;;;;;;5051033;28;20546;-69
2022/07/13 07:27:28;;;;;;;2.05;1.67;;;;;;;;;;5051055;28;20052;-69
2022/07/13 07:29:55;;;;;;;1.75;1.65;;;;;;;;;;5051017;28;20087;-69
2022/07/13 07:32:21;;;;;;;1.83;1.60;;;;;;;;;;5050965;28;20049;-69
2022/07/13 07:34:49;;;;;;;2.63;1.48;;;;;;;;;;5051114;28;20048;-70
2022/07/13 07:37:15;;;;;;;1.85;1.73;;;;;;;;;;5049487;28;20107;-70
2022/07/13 07:39:41;;;;;;;1.85;1.75;;;;;;;;;;5050845;28;20103;-70
2022/07/13 07:42:08;;;;;;;2.70;1.60;;;;;;;;;;5051176;28;20126;-70
2022/07/13 07:44:34;;;;;;;3.58;1.73;;;;;;;;;;5052113;28;20044;-70
2022/07/13 07:47:01;;;;;;;2.00;1.70;;;;;;;;;;5054841;28;20098;-70
2022/07/13 07:49:28;;;;;;;1.92;1.50;;;;;;;;;;5053433;28;20045;-70
2022/07/13 07:51:54;;;;;;;1.70;1.60;;;;;;;;;;5054647;28;20049;-70
2022/07/13 07:54:41;;;;;;;2.55;1.33;;;;;;;;;;5054608;28;20049;-69
2022/07/13 07:57:07;;;;;;;2.33;1.30;;;;;;;;;;5053202;28;20110;-69
2022/07/13 07:59:34;;;;;;;1.58;1.42;;;;;;;;;;5054450;28;20099;-69
2022/07/13 08:02:01;;;;;;;1.95;1.63;;;;;;;;;;5053148;28;20057;-69
2022/07/13 08:04:28;;;;;;;2.92;1.50;;;;;;;;;;5054484;28;20052;-69
2022/07/13 08:06:54;;;;;;;1.52;1.27;;;;;;;;;;5054075;28;20440;-69
2022/07/13 08:09:21;;;;;;;1.70;1.60;;;;;;;;;;5054415;28;20048;-69
2022/07/13 08:11:47;;;;;;;1.83;1.13;;;;;;;;;;5053988;28;20497;-69
2022/07/13 08:14:14;;;;;;;1.85;1.42;;;;;;;;;;5053951;28;20107;-69
2022/07/13 08:16:40;;;;;;;1.70;1.60;;;;;;;;;;5054153;28;20409;-69
2022/07/13 08:19:07;;;;;;;;;;;;;;;;;;5054574;28;20049;-69
2022/07/13 08:21:53;;;;;;;1.70;1.23;;;;;;;;;;5053614;28;19983;-69
2022/07/13 08:24:20;;;;;;;2.78;1.58;;;;;;;;;;5054069;28;20052;-69
2022/07/13 08:26:47;;;;;;;1.63;1.23;;;;;;;;;;5053964;28;20048;-69
2022/07/13 08:29:13;;;;;;;2.22;1.48;;;;;;;;;;5052687;28;20060;-69
2022/07/13 08:31:40;;;;;;;2.08;1.45;;;;;;;;;;5053688;28;20051;-69
2022/07/13 08:39:36;;;;;;;1.88;1.40;;;;;;;;;;5053720;28;20048;-69
2022/07/13 08:42:04;;;;;;;1.60;1.38;;;;;;;;;;5053484;28;20053;-69
2022/07/13 08:44:31;;;;;;;1.83;1.38;;;;;;;;;;5052110;28;20099;-70
2022/07/13 08:47:05;;;;;;;2.80;1.55;;;;;;;;;;5053292;28;20488;-70
2022/07/13 08:49:32;;;;;;;2.42;1.50;;;;;;;;;;5053516;28;20056;-70
2022/07/13 08:51:58;;;;;;;1.45;1.35;;;;;;;;;;5053246;28;20087;-70
2022/07/13 08:54:25;;;;;;;2.33;1.70;;;;;;;;;;5052186;28;20049;-69
2022/07/13 08:56:52;;;;;;;;;;;;;;;;;;5053856;28;20045;-69
2022/07/13 08:59:18;;;;;;;1.55;1.20;;;;;;;;;;5053086;28;19928;-69
2022/07/13 09:01:45;;;;;;;2.00;1.70;;;;;;;;;;5052998;28;20099;-69
2022/07/13 09:04:15;;;;;;;1.63;1.52;;;;;;;;;;5053290;28;20077;-69
2022/07/13 09:06:43;;;;;;;2.60;1.88;;;;;;;;;;5053243;28;20048;-69
2022/07/13 09:09:27;;;;;;;3.33;1.63;;;;;;;;;;5053125;28;20040;-69
2022/07/13 09:12:17;;;;;;;3.25;2.03;;;;;;;;;;5052783;28;20560;-69
2022/07/13 09:14:49;;;;;;;2.42;1.92;;;;;;;;;;5052874;28;20564;-69
2022/07/13 09:17:35;;;;;;;3.28;1.75;;;;;;;;;;5052750;28;20098;-69
2022/07/13 09:20:15;;;;;;;4.07;2.15;;;;;;;;;;5052691;28;20052;-69
2022/07/13 09:23:02;;;;;;;3.78;1.60;;;;;;;;;;5053055;28;20049;-69
2022/07/13 09:25:31;;;;;;;4.70;1.73;;;;;;;;;;5052142;28;20508;-69
2022/07/13 09:28:07;;;;;;;2.80;1.83;;;;;;;;;;5051429;28;20072;-69
2022/07/13 09:30:35;;;;;;;2.72;1.80;;;;;;;;;;5051224;28;20455;-69
2022/07/13 09:33:02;;;;;;;3.13;1.80;;;;;;;;;;5052405;28;20040;-69
2022/07/13 09:35:28;;;;;;;;;;;;;;;;;;5053047;28;20057;-69
2022/07/13 09:37:56;;;;;;;;;;;;;;;;;;5052555;28;19921;-69
2022/07/13 09:40:23;;;;;;;2.13;1.75;;;;;;;;;;5052455;28;20047;-69
2022/07/13 09:46:08;;;;;;;3.58;1.80;;;;;;;;;;5052379;28;20095;-70
2022/07/13 09:48:21;;;;;;;2.13;1.47;;;;;;;;;;5052503;28;20012;-70
2022/07/13 09:50:51;;;;;;;2.33;1.40;;;;;;;;;;5052503;28;20048;-69
2022/07/13 09:53:25;;;;;;;1.83;1.33;;;;;;;;;;5052438;28;20045;-70
2022/07/13 09:55:52;;;;;;;2.15;1.35;;;;;;;;;;5050821;28;20041;-70
2022/07/13 09:58:32;;;;;;;2.10;1.45;;;;;;;;;;5050685;28;20414;-69
2022/07/13 10:00:59;;;;;;;1.42;1.33;;;;;;;;;;5052095;28;20044;-70
2022/07/13 10:03:29;;;;;;;3.10;1.98;;;;;;;;;;5051959;28;20037;-69
2022/07/13 10:05:56;;;;;;;1.13;1.13;;;;;;;;;;5052528;28;20099;-70
2022/07/13 10:08:23;;;;;;;1.20;1.05;;;;;;;;;;5051396;28;20083;-69
2022/07/13 10:10:50;;;;;;;2.33;1.45;;;;;;;;;;5051798;28;20099;-70
2022/07/13 10:13:17;;;;;;;2.92;1.00;;;;;;;;;;5051815;28;20048;-70
2022/07/13 10:15:44;;;;;;;1.27;1.13;;;;;;;;;;5051915;28;20107;-70
2022/07/13 10:18:12;;;;;;;1.45;1.10;;;;;;;;;;5051984;28;20103;-70
2022/07/13 10:20:42;;;;;;;1.35;1.25;;;;;;;;;;5051581;28;20515;-70
2022/07/13 10:23:10;;;;;;;1.92;1.27;;;;;;;;;;5051943;28;20049;-70
2022/07/13 10:25:57;;;;;;;1.58;1.48;;;;;;;;;;5050792;28;20132;-70
2022/07/13 10:28:27;;;;;;;1.42;1.33;;;;;;;;;;5051699;28;20484;-70
2022/07/13 10:30:54;;;;;;;2.08;1.50;;;;;;;;;;5051784;28;20078;-70
2022/07/13 10:33:20;;;;;;;;;;;;;;;;;;5052246;28;20130;-70
2022/07/13 10:35:49;;;;;;;1.33;1.10;;;;;;;;;;5051736;28;19920;-70
2022/07/13 10:38:20;;;;;;;1.58;1.25;;;;;;;;;;5051395;28;20134;-70
2022/07/13 10:40:46;;;;;;;1.40;1.30;;;;;;;;;;5051681;28;20052;-70
2022/07/13 10:43:13;;;;;;;;;;;;;;;;;;5052173;28;20044;-70
2022/07/13 10:45:48;;;;;;;1.10;1.00;;;;;;;;;;5051482;28;19924;-70
2022/07/13 10:48:15;;;;;;;;;;;;;;;;;;5052026;28;20049;-70
2022/07/13 10:50:51;;;;;;;1.73;1.00;;;;;;;;;;5051549;28;19978;-70
2022/07/13 10:53:19;;;;;;;0.93;0.90;;;;;;;;;;5051359;28;20057;-70
2022/07/13 10:55:46;;;;;;;1.88;1.10;;;;;;;;;;5051366;28;20136;-70
2022/07/13 10:58:29;;;;;;;1.15;1.05;;;;;;;;;;5051486;28;20409;-70
2022/07/13 11:00:56;;;;;;;1.00;1.00;;;;;;;;;;5051508;28;20049;-70
2022/07/13 11:03:26;;;;;;;1.35;0.93;;;;;;;;;;5051501;28;20037;-69
2022/07/13 11:06:06;;;;;;;1.38;1.08;;;;;;;;;;5051219;28;20481;-70
2022/07/13 11:08:32;;;;;;;0.88;0.88;;;;;;;;;;5051134;28;20477;-70
2022/07/13 11:11:09;;;;;;;2.65;1.20;;;;;;;;;;5051443;28;20048;-70
2022/07/13 11:13:36;;;;;;;1.27;1.15;;;;;;;;;;5051090;28;20460;-70
2022/07/13 11:16:02;;;;;;;2.35;1.20;;;;;;;;;;5051069;28;20053;-70
2022/07/13 11:18:31;;;;;;;1.48;1.20;;;;;;;;;;5051086;28;20051;-70
2022/07/13 11:21:00;;;;;;;1.50;0.88;;;;;;;;;;5054555;28;20049;-70
2022/07/13 11:26:39;;;;;;;0.93;0.63;;;;;;;;;;5054960;28;20132;-69
2022/07/13 11:29:18;;;;;;;1.53;0.77;;;;;;;;;;5055105;28;20460;-69
2022/07/13 11:31:44;;;;;;;1.40;0.80;;;;;;;;;;5055034;28;20293;-70
2022/07/13 11:34:11;;;;;;;1.38;0.80;;;;;;;;;;5054669;28;20064;-70
2022/07/13 11:36:42;;;;;;;1.45;0.80;;;;;;;;;;5054683;28;20057;-70
2022/07/13 11:39:40;;;;;;;0.88;0.88;;;;;;;;;;5054760;28;20397;-69
2022/07/13 11:42:07;;;;;;;1.15;0.80;;;;;;;;;;5053066;28;20386;-69
2022/07/13 11:44:35;;;;;;;1.60;0.90;;;;;;;;;;5053542;28;20140;-70
2022/07/13 11:47:02;;;;;;;1.08;0.77;;;;;;;;;;5054714;28;20122;-69
2022/07/13 11:49:40;;;;;;;1.42;0.80;;;;;;;;;;5054655;28;20049;-69
2022/07/13 11:52:07;;;;;;;0.82;0.73;;;;;;;;;;5054725;28;20186;-70
2022/07/13 11:54:33;;;;;;;0.70;0.40;;;;;;;;;;5054574;28;20048;-70
2022/07/13 11:57:07;;;;;;;1.30;0.70;;;;;;;;;;5054582;28;20045;-70
2022/07/13 11:59:38;;;;;;;0.85;0.80;;;;;;;;;;5054512;28;20103;-69
2022/07/13 12:02:08;;;;;;;0.90;0.70;;;;;;;;;;5053157;28;20110;-69
2022/07/13 12:04:38;;;;;;;1.40;0.68;;;;;;;;;;5054535;28;20045;-69
2022/07/13 12:07:28;;;;;;;1.30;0.70;;;;;;;;;;5054095;28;20041;-69
2022/07/13 12:09:58;;;;;;;0.70;0.70;;;;;;;;;;5054437;28;20542;-69
2022/07/13 12:12:26;;;;;;;0.63;0.63;;;;;;;;;;5054049;28;20053;-69
2022/07/13 12:14:53;;;;;;;0.88;0.70;;;;;;;;;;5053983;28;20065;-69
2022/07/13 12:17:21;;;;;;;1.60;0.80;;;;;;;;;;5054308;28;20106;-69
2022/07/13 12:19:48;;;;;;;1.15;0.90;;;;;;;;;;5053963;28;20060;-69
2022/07/13 12:22:19;;;;;;;1.10;1.00;;;;;;;;;;5053896;28;20045;-69
2022/07/13 12:24:47;;;;;;;2.47;0.98;;;;;;;;;;5053840;28;20454;-70
2022/07/13 12:27:26;;;;;;;1.30;0.98;;;;;;;;;;5053972;28;20079;-70
2022/07/13 12:30:09;;;;;;;2.55;0.82;;;;;;;;;;5053385;28;20420;-70
2022/07/13 12:32:54;;;;;;;1.27;0.98;;;;;;;;;;5053946;28;20061;-70
2022/07/13 12:35:20;;;;;;;2.22;0.98;;;;;;;;;;5053929;28;20049;-70
2022/07/13 12:37:50;;;;;;;0.75;0.75;;;;;;;;;;5053574;28;20045;-70
2022/07/13 12:40:35;;;;;;;1.05;0.90;;;;;;;;;;5053536;28;20103;-69
2022/07/13 12:43:01;;;;;;;1.47;0.90;;;;;;;;;;5053497;28;20053;-69
2022/07/13 12:45:27;;;;;;;;;;;;;;;;;;5053857;28;20505;-70
2022/07/13 12:47:55;;;;;;;1.23;1.10;;;;;;;;;;5053268;28;19927;-70
2022/07/13 12:50:26;;;;;;;1.95;1.00;;;;;;;;;;5053291;28;20084;-70
2022/07/13 12:53:02;;;;;;;1.52;0.98;;;;;;;;;;5052288;28;20111;-70
2022/07/13 12:55:29;;;;;;;1.23;0.80;;;;;;;;;;5053655;28;20421;-70
2022/07/13 12:57:55;;;;;;;1.27;0.70;;;;;;;;;;5053252;28;20460;-71
2022/07/13 13:00:23;;;;;;;0.98;0.77;;;;;;;;;;5052013;28;20053;-70
2022/07/13 13:02:50;;;;;;;1.23;1.10;;;;;;;;;;5053321;28;20090;-70
2022/07/13 13:05:17;;;;;;;1.75;1.15;;;;;;;;;;5053022;28;20489;-70
2022/07/13 13:07:43;;;;;;;2.25;1.15;;;;;;;;;;5052965;28;20494;-70
2022/07/13 13:10:10;;;;;;;;;;;;;;;;;;5053596;28;20048;-70
2022/07/13 13:12:37;;;;;;;2.13;1.00;;;;;;;;;;5043793;28;19929;-70
2022/07/13 13:15:04;;;;;;;2.15;1.27;;;;;;;;;;5048068;28;20049;-70
2022/07/13 13:17:30;;;;;;;3.60;1.42;;;;;;;;;;5052833;28;20102;-70
2022/07/13 13:19:57;;;;;;;1.08;1.08;;;;;;;;;;5052794;28;20048;-70
2022/07/13 13:22:39;;;;;;;2.10;0.90;;;;;;;;;;5052669;28;20075;-70
2022/07/13 13:25:06;;;;;;;1.73;0.98;;;;;;;;;;5052685;28;20492;-70
2022/07/13 13:27:32;;;;;;;1.48;1.10;;;;;;;;;;5025156;28;20057;-70
2022/07/13 13:33:04;;;;;;;1.73;1.20;;;;;;;;;;5052856;28;20110;-70
2022/07/13 13:35:31;;;;;;;1.20;1.00;;;;;;;;;;5052745;28;20122;-70
2022/07/13 13:37:58;;;;;;;0.88;0.80;;;;;;;;;;5052321;28;20111;-70
2022/07/13 13:40:24;;;;;;;2.15;0.93;;;;;;;;;;5052343;28;20106;-70
2022/07/13 13:42:51;;;;;;;1.10;0.70;;;;;;;;;;5051817;28;20044;-69
2022/07/13 13:45:20;;;;;;;1.20;1.00;;;;;;;;;;5052545;28;20053;-69
2022/07/13 13:47:46;;;;;;;2.20;0.88;;;;;;;;;;5052077;28;20091;-69
2022/07/13 13:50:13;;;;;;;0.95;0.82;;;;;;;;;;5052133;28;20053;-69
2022/07/13 13:52:41;;;;;;;1.00;0.90;;;;;;;;;;5052192;28;20072;-70
2022/07/13 13:55:08;;;;;;;1.33;0.70;;;;;;;;;;5052040;28;20485;-70
2022/07/13 13:57:34;;;;;;;1.38;0.73;;;;;;;;;;5051999;28;20045;-70
2022/07/13 14:00:01;;;;;;;1.02;0.90;;;;;;;;;;5052151;28;20048;-69
2022/07/13 14:02:47;;;;;;;0.70;0.70;;;;;;;;;;5051852;28;20131;-70
2022/07/13 14:05:14;;;;;;;1.35;0.95;;;;;;;;;;5051919;28;20041;-70
2022/07/13 14:07:40;;;;;;;0.90;0.90;;;;;;;;;;5051998;28;20041;-70
2022/07/13 14:10:07;;;;;;;1.60;0.80;;;;;;;;;;5051775;28;20075;-70
2022/07/13 14:12:34;;;;;;;1.45;0.90;;;;;;;;;;5052426;28;20053;-70
2022/07/13 14:15:00;;;;;;;1.00;0.90;;;;;;;;;;5051981;28;20053;-70
2022/07/13 14:17:27;;;;;;;1.75;0.60;;;;;;;;;;5051799;28;20198;-70
2022/07/13 14:19:53;;;;;;;2.45;0.80;;;;;;;;;;5051680;28;20060;-70
2022/07/13 14:22:40;;;;;;;1.10;0.98;;;;;;;;;;5051811;28;20135;-70
2022/07/13 14:25:07;;;;;;;0.60;0.60;;;;;;;;;;5052009;28;20045;-70
2022/07/13 14:27:33;;;;;;;1.38;0.90;;;;;;;;;;5051625;28;20496;-70
2022/07/13 14:30:00;;;;;;;1.13;0.90;;;;;;;;;;5051842;28;20048;-70
2022/07/13 14:32:26;;;;;;;0.90;0.88;;;;;;;;;;5051512;28;20075;-70
2022/07/13 14:34:56;;;;;;;2.05;1.63;;;;;;;;;;5051584;28;20385;-70
2022/07/13 14:37:24;;;;;;;2.28;1.20;;;;;;;;;;5051267;28;20391;-70
2022/07/13 14:39:51;;;;;;;2.95;1.00;;;;;;;;;;5051763;28;20055;-70
2022/07/13 14:42:17;;;;;;;1.50;0.80;;;;;;;;;;5051674;28;20049;-70
2022/07/13 14:44:44;;;;;;;1.65;1.00;;;;;;;;;;5051424;28;20099;-70
2022/07/13 14:47:17;;;;;;;2.42;1.38;;;;;;;;;;5051677;28;20049;-70
2022/07/13 14:49:55;;;;;;;1.40;1.00;;;;;;;;;;5051685;28;20080;-70
2022/07/13 14:52:39;;;;;;;1.73;1.10;;;;;;;;;;5051628;28;20048;-70
2022/07/13 14:55:05;;;;;;;1.67;0.90;;;;;;;;;;5055134;28;20412;-69
2022/07/13 14:57:32;;;;;;;1.83;0.80;;;;;;;;;;5055786;28;20482;-68
2022/07/13 14:59:58;;;;;;;1.40;1.00;;;;;;;;;;5055287;28;20546;-68
2022/07/13 15:02:25;;;;;;;1.80;1.10;;;;;;;;;;5055589;28;20443;-68
2022/07/13 15:04:51;;;;;;;1.92;1.20;;;;;;;;;;5055477;28;20049;-68
2022/07/13 15:07:18;;;;;;;2.28;1.00;;;;;;;;;;5055576;28;20049;-68